createdAt,value
2018-09-27T00:00:42.486Z,12.00
2018-09-27T00:01:46.133Z,12.00
2018-09-27T00:02:50.915Z,11.90
2018-09-27T00:03:54.720Z,11.90
2018-09-27T00:04:58.663Z,11.80
2018-09-27T00:06:02.990Z,11.70
2018-09-27T00:07:07.526Z,11.70
2018-09-27T00:08:12.364Z,11.70
2018-09-27T00:09:15.966Z,11.70
2018-09-27T00:10:19.656Z,11.70
2018-09-27T00:11:23.660Z,11.70
2018-09-27T00:12:27.287Z,11.70
2018-09-27T00:13:31.034Z,11.80
2018-09-27T00:14:35.171Z,11.80
2018-09-27T00:15:38.796Z,11.80
2018-09-27T00:16:43.363Z,11.90
2018-09-27T00:17:47.920Z,11.80
2018-09-27T00:18:51.571Z,11.80
2018-09-27T00:19:55.185Z,11.80
2018-09-27T00:20:58.937Z,11.80
2018-09-27T00:22:02.598Z,11.90
2018-09-27T00:23:06.696Z,11.90
2018-09-27T00:24:10.597Z,11.90
2018-09-27T00:25:14.862Z,11.90
2018-09-27T00:26:18.574Z,11.90
2018-09-27T00:27:22.357Z,11.80
2018-09-27T00:28:26.886Z,11.80
2018-09-27T00:29:30.500Z,11.70
2018-09-27T00:30:34.068Z,11.60
2018-09-27T00:31:37.630Z,11.60
2018-09-27T00:32:42.118Z,11.50
2018-09-27T00:33:46.738Z,11.50
2018-09-27T00:34:51.720Z,11.40
2018-09-27T00:35:55.390Z,11.40
2018-09-27T00:36:59.386Z,11.40
2018-09-27T00:38:03.031Z,11.30
2018-09-27T00:39:09.703Z,11.20
2018-09-27T00:40:13.824Z,11.30
2018-09-27T00:41:17.430Z,11.30
2018-09-27T00:42:21.194Z,11.20
2018-09-27T00:43:24.914Z,11.20
2018-09-27T00:44:28.468Z,11.20
2018-09-27T00:45:32.083Z,11.10
2018-09-27T00:46:35.782Z,11.00
2018-09-27T00:47:39.362Z,10.90
2018-09-27T00:48:42.964Z,10.90
2018-09-27T00:49:46.549Z,10.90
2018-09-27T00:50:50.072Z,10.90
2018-09-27T00:51:53.595Z,10.90
2018-09-27T00:52:57.092Z,10.90
2018-09-27T00:54:00.794Z,10.90
2018-09-27T00:55:04.367Z,10.90
2018-09-27T00:56:07.867Z,10.90
2018-09-27T00:57:11.517Z,10.90
2018-09-27T00:58:15.142Z,11.00
2018-09-27T00:59:18.611Z,11.00
2018-09-27T01:00:22.149Z,11.00
2018-09-27T01:01:25.593Z,11.10
2018-09-27T01:02:29.081Z,11.10
2018-09-27T01:03:32.568Z,11.20
2018-09-27T01:04:36.083Z,11.30
2018-09-27T01:05:39.589Z,11.40
2018-09-27T01:06:43.065Z,11.40
2018-09-27T01:07:46.604Z,11.50
2018-09-27T01:08:50.147Z,11.50
2018-09-27T01:09:53.655Z,11.50
2018-09-27T01:10:57.139Z,11.50
2018-09-27T01:12:00.592Z,11.50
2018-09-27T01:13:04.098Z,11.60
2018-09-27T01:14:07.649Z,11.60
2018-09-27T01:15:11.475Z,11.60
2018-09-27T01:16:14.968Z,11.60
2018-09-27T01:17:18.749Z,11.60
2018-09-27T01:18:22.229Z,11.60
2018-09-27T01:19:25.762Z,11.70
2018-09-27T01:20:29.272Z,11.70
2018-09-27T01:21:32.798Z,11.70
2018-09-27T01:22:36.279Z,11.70
2018-09-27T01:23:39.783Z,11.70
2018-09-27T01:24:43.288Z,11.70
2018-09-27T01:25:46.762Z,11.70
2018-09-27T01:26:50.306Z,11.70
2018-09-27T01:27:53.772Z,11.70
2018-09-27T01:28:57.240Z,11.70
2018-09-27T01:30:00.715Z,11.70
2018-09-27T01:31:04.179Z,11.70
2018-09-27T01:32:07.622Z,11.70
2018-09-27T01:33:11.218Z,11.60
2018-09-27T01:34:14.915Z,11.60
2018-09-27T01:35:18.628Z,11.50
2018-09-27T01:36:22.088Z,11.50
2018-09-27T01:37:25.572Z,11.40
2018-09-27T01:38:29.100Z,11.40
2018-09-27T01:39:32.639Z,11.40
2018-09-27T01:40:36.191Z,11.30
2018-09-27T01:41:39.637Z,11.30
2018-09-27T01:42:43.107Z,11.30
2018-09-27T01:43:46.610Z,11.20
2018-09-27T01:44:50.158Z,11.20
2018-09-27T01:45:53.644Z,11.20
2018-09-27T01:46:57.207Z,11.20
2018-09-27T01:48:00.623Z,11.10
2018-09-27T01:49:04.115Z,11.10
2018-09-27T01:50:07.655Z,11.10
2018-09-27T01:51:11.266Z,11.00
2018-09-27T01:52:14.726Z,11.00
2018-09-27T01:53:18.298Z,10.90
2018-09-27T01:54:21.740Z,10.90
2018-09-27T01:55:25.206Z,10.90
2018-09-27T01:56:28.770Z,10.90
2018-09-27T01:57:32.263Z,10.90
2018-09-27T01:58:35.687Z,10.90
2018-09-27T01:59:39.188Z,10.90
2018-09-27T02:00:42.690Z,10.90
2018-09-27T02:01:46.177Z,10.90
2018-09-27T02:02:49.625Z,10.90
2018-09-27T02:03:53.162Z,11.00
2018-09-27T02:04:56.640Z,11.00
2018-09-27T02:06:00.175Z,11.10
2018-09-27T02:07:03.617Z,11.10
2018-09-27T02:08:07.167Z,11.10
2018-09-27T02:09:10.852Z,11.20
2018-09-27T02:10:14.350Z,11.10
2018-09-27T02:11:18.288Z,11.10
2018-09-27T02:12:21.770Z,11.10
2018-09-27T02:13:25.250Z,11.10
2018-09-27T02:14:28.700Z,11.10
2018-09-27T02:15:32.186Z,11.10
2018-09-27T02:16:35.745Z,11.00
2018-09-27T02:17:39.191Z,11.00
2018-09-27T02:18:42.623Z,11.00
2018-09-27T02:19:46.065Z,11.00
2018-09-27T02:20:49.509Z,11.00
2018-09-27T02:21:52.955Z,11.00
2018-09-27T02:22:56.426Z,11.00
2018-09-27T02:23:59.973Z,11.00
2018-09-27T02:25:03.447Z,11.00
2018-09-27T02:26:06.916Z,11.00
2018-09-27T02:27:10.688Z,11.00
2018-09-27T02:28:14.209Z,11.00
2018-09-27T02:29:17.684Z,11.00
2018-09-27T02:30:21.131Z,11.10
2018-09-27T02:31:24.672Z,11.10
2018-09-27T02:32:28.196Z,11.20
2018-09-27T02:33:32.568Z,11.30
2018-09-27T02:34:36.083Z,11.30
2018-09-27T02:35:39.553Z,11.40
2018-09-27T02:36:43.003Z,11.40
2018-09-27T02:37:46.425Z,11.40
2018-09-27T02:38:49.908Z,11.50
2018-09-27T02:39:53.360Z,11.50
2018-09-27T02:40:56.828Z,11.60
2018-09-27T02:42:00.338Z,11.60
2018-09-27T02:43:03.909Z,11.60
2018-09-27T02:44:07.599Z,11.70
2018-09-27T02:45:11.294Z,11.70
2018-09-27T02:46:14.764Z,11.80
2018-09-27T02:47:18.221Z,11.80
2018-09-27T02:48:21.705Z,11.80
2018-09-27T02:49:25.171Z,11.90
2018-09-27T02:50:28.622Z,11.90
2018-09-27T02:51:32.232Z,12.00
2018-09-27T02:52:35.738Z,12.00
2018-09-27T02:53:39.180Z,12.10
2018-09-27T02:54:42.634Z,12.10
2018-09-27T02:55:46.078Z,12.20
2018-09-27T02:56:49.637Z,12.20
2018-09-27T02:57:53.109Z,12.20
2018-09-27T02:58:56.631Z,12.30
2018-09-27T03:00:00.088Z,12.30
2018-09-27T03:01:03.600Z,12.40
2018-09-27T03:02:07.114Z,12.40
2018-09-27T03:03:10.774Z,12.40
2018-09-27T03:04:14.226Z,12.40
2018-09-27T03:05:17.692Z,12.50
2018-09-27T03:06:21.206Z,12.50
2018-09-27T03:07:24.924Z,12.50
2018-09-27T03:08:28.392Z,12.60
2018-09-27T03:09:31.982Z,12.60
2018-09-27T03:10:35.553Z,12.60
2018-09-27T03:11:39.094Z,12.60
2018-09-27T03:12:42.577Z,12.70
2018-09-27T03:13:46.080Z,12.70
2018-09-27T03:14:49.527Z,12.70
2018-09-27T03:15:52.963Z,12.70
2018-09-27T03:16:56.434Z,12.70
2018-09-27T03:17:59.926Z,12.80
2018-09-27T03:19:03.447Z,12.80
2018-09-27T03:20:07.068Z,12.80
2018-09-27T03:21:10.526Z,12.70
2018-09-27T03:22:14.014Z,12.80
2018-09-27T03:23:17.624Z,12.80
2018-09-27T03:24:21.033Z,12.80
2018-09-27T03:25:24.720Z,12.80
2018-09-27T03:26:28.169Z,12.80
2018-09-27T03:27:31.830Z,12.90
2018-09-27T03:28:35.332Z,12.80
2018-09-27T03:29:38.857Z,12.80
2018-09-27T03:30:42.376Z,12.90
2018-09-27T03:31:45.881Z,12.90
2018-09-27T03:32:49.514Z,12.80
2018-09-27T03:33:53.098Z,12.80
2018-09-27T03:34:57.228Z,12.90
2018-09-27T03:36:00.782Z,12.90
2018-09-27T03:37:04.355Z,12.90
2018-09-27T03:38:07.829Z,12.90
2018-09-27T03:39:11.468Z,12.90
2018-09-27T03:40:15.728Z,12.90
2018-09-27T03:41:19.159Z,12.90
2018-09-27T03:42:22.670Z,12.90
2018-09-27T03:43:26.166Z,12.90
2018-09-27T03:44:29.651Z,12.90
2018-09-27T03:45:33.303Z,12.90
2018-09-27T03:46:36.728Z,12.90
2018-09-27T03:47:40.213Z,12.90
2018-09-27T03:48:43.664Z,12.90
2018-09-27T03:49:47.186Z,12.90
2018-09-27T03:50:50.619Z,12.90
2018-09-27T03:51:54.059Z,12.90
2018-09-27T03:52:57.547Z,12.90
2018-09-27T03:54:01.076Z,12.90
2018-09-27T03:55:04.565Z,12.90
2018-09-27T03:56:08.031Z,12.90
2018-09-27T03:57:11.579Z,12.90
2018-09-27T03:58:15.034Z,12.90
2018-09-27T03:59:18.817Z,12.90
2018-09-27T04:00:22.291Z,12.90
2018-09-27T04:01:26.042Z,12.90
2018-09-27T04:02:29.597Z,12.90
2018-09-27T04:03:33.144Z,12.90
2018-09-27T04:04:36.606Z,12.90
2018-09-27T04:05:40.237Z,12.90
2018-09-27T04:06:43.737Z,12.90
2018-09-27T04:07:47.236Z,13.00
2018-09-27T04:08:50.706Z,13.00
2018-09-27T04:09:54.194Z,13.00
2018-09-27T04:10:58.210Z,13.00
2018-09-27T04:12:01.722Z,13.00
2018-09-27T04:13:05.321Z,13.00
2018-09-27T04:14:09.395Z,13.00
2018-09-27T04:15:13.068Z,13.00
2018-09-27T04:16:16.798Z,13.00
2018-09-27T04:17:20.240Z,13.00
2018-09-27T04:18:23.682Z,13.10
2018-09-27T04:19:27.255Z,13.10
2018-09-27T04:20:30.709Z,13.10
2018-09-27T04:21:34.409Z,13.10
2018-09-27T04:22:37.925Z,13.00
2018-09-27T04:23:41.388Z,13.00
2018-09-27T04:24:44.898Z,13.00
2018-09-27T04:25:48.527Z,13.00
2018-09-27T04:26:52.009Z,13.00
2018-09-27T04:27:55.511Z,13.00
2018-09-27T04:28:59.364Z,13.00
2018-09-27T04:30:03.010Z,13.00
2018-09-27T04:31:06.687Z,13.00
2018-09-27T04:32:10.305Z,13.00
2018-09-27T04:33:13.818Z,13.00
2018-09-27T04:34:17.279Z,13.00
2018-09-27T04:35:20.752Z,13.00
2018-09-27T04:36:24.189Z,13.10
2018-09-27T04:37:27.658Z,13.10
2018-09-27T04:38:31.700Z,13.10
2018-09-27T04:39:35.367Z,13.10
2018-09-27T04:40:38.847Z,13.00
2018-09-27T04:41:42.549Z,13.10
2018-09-27T04:42:46.080Z,13.10
2018-09-27T04:43:49.574Z,13.10
2018-09-27T04:44:53.061Z,13.10
2018-09-27T04:45:56.572Z,13.00
2018-09-27T04:47:00.005Z,13.00
2018-09-27T04:48:03.470Z,13.00
2018-09-27T04:49:07.076Z,13.00
2018-09-27T04:50:10.651Z,13.00
2018-09-27T04:51:14.216Z,13.00
2018-09-27T04:52:17.710Z,13.00
2018-09-27T04:53:21.214Z,13.00
2018-09-27T04:54:24.712Z,13.10
2018-09-27T04:55:28.212Z,13.10
2018-09-27T04:56:31.745Z,13.00
2018-09-27T04:57:35.228Z,13.00
2018-09-27T04:58:38.778Z,13.00
2018-09-27T04:59:42.261Z,13.00
2018-09-27T05:00:45.844Z,13.00
2018-09-27T05:01:49.399Z,13.00
2018-09-27T05:02:52.830Z,12.90
2018-09-27T05:03:56.341Z,12.90
2018-09-27T05:05:00.014Z,12.90
2018-09-27T05:06:03.680Z,13.00
2018-09-27T05:07:07.227Z,13.00
2018-09-27T05:08:10.718Z,13.00
2018-09-27T05:09:14.262Z,12.90
2018-09-27T05:10:17.827Z,12.90
2018-09-27T05:11:21.430Z,12.90
2018-09-27T05:12:24.922Z,13.00
2018-09-27T05:13:28.607Z,12.90
2018-09-27T05:14:32.092Z,12.90
2018-09-27T05:15:35.730Z,12.90
2018-09-27T05:16:39.169Z,12.90
2018-09-27T05:17:42.700Z,12.90
2018-09-27T05:18:46.280Z,12.90
2018-09-27T05:19:49.782Z,12.90
2018-09-27T05:20:53.294Z,12.90
2018-09-27T05:21:56.818Z,12.90
2018-09-27T05:23:00.325Z,12.80
2018-09-27T05:24:03.781Z,12.90
2018-09-27T05:25:07.252Z,12.80
2018-09-27T05:26:10.879Z,12.80
2018-09-27T05:27:14.687Z,12.80
2018-09-27T05:28:18.118Z,12.80
2018-09-27T05:29:21.826Z,12.80
2018-09-27T05:30:25.274Z,12.80
2018-09-27T05:31:28.856Z,12.80
2018-09-27T05:32:32.369Z,12.80
2018-09-27T05:33:36.035Z,12.80
2018-09-27T05:34:39.602Z,12.80
2018-09-27T05:35:43.086Z,12.90
2018-09-27T05:36:46.568Z,12.90
2018-09-27T05:37:50.195Z,12.80
2018-09-27T05:38:53.873Z,12.80
2018-09-27T05:39:57.350Z,12.80
2018-09-27T05:41:00.897Z,12.80
2018-09-27T05:42:04.399Z,12.80
2018-09-27T05:43:08.187Z,12.80
2018-09-27T05:44:11.757Z,12.80
2018-09-27T05:45:15.305Z,12.70
2018-09-27T05:46:18.835Z,12.80
2018-09-27T05:47:22.344Z,12.80
2018-09-27T05:48:25.834Z,12.90
2018-09-27T05:49:30.089Z,12.80
2018-09-27T05:50:33.726Z,12.90
2018-09-27T05:51:37.285Z,12.90
2018-09-27T05:52:40.763Z,12.90
2018-09-27T05:53:44.258Z,12.90
2018-09-27T05:54:59.701Z,12.90
2018-09-27T05:56:03.287Z,13.00
2018-09-27T05:57:06.704Z,12.90
2018-09-27T05:58:10.178Z,13.00
2018-09-27T05:59:13.703Z,13.00
2018-09-27T06:00:17.300Z,13.00
2018-09-27T06:01:20.959Z,13.00
2018-09-27T06:02:25.149Z,12.90
2018-09-27T06:03:29.116Z,12.90
2018-09-27T06:04:32.546Z,12.80
2018-09-27T06:05:36.036Z,12.80
2018-09-27T06:06:39.735Z,12.70
2018-09-27T06:07:43.303Z,12.70
2018-09-27T06:08:47.965Z,12.70
2018-09-27T06:09:51.581Z,12.70
2018-09-27T06:10:55.037Z,12.70
2018-09-27T06:11:58.606Z,12.60
2018-09-27T06:13:02.235Z,12.60
2018-09-27T06:14:06.290Z,12.60
2018-09-27T06:15:09.785Z,12.50
2018-09-27T06:16:14.281Z,12.50
2018-09-27T06:17:17.731Z,12.50
2018-09-27T06:18:21.173Z,12.40
2018-09-27T06:19:24.798Z,12.50
2018-09-27T06:20:28.236Z,12.50
2018-09-27T06:21:31.970Z,12.40
2018-09-27T06:22:35.417Z,12.40
2018-09-27T06:23:39.195Z,12.30
2018-09-27T06:24:42.620Z,12.30
2018-09-27T06:25:46.515Z,12.30
2018-09-27T06:26:50.298Z,12.30
2018-09-27T06:27:53.960Z,12.30
2018-09-27T06:28:57.547Z,12.40
2018-09-27T06:30:01.004Z,12.50
2018-09-27T06:31:04.651Z,12.50
2018-09-27T06:32:08.223Z,12.60
2018-09-27T06:33:12.421Z,12.70
2018-09-27T06:34:16.263Z,12.80
2018-09-27T06:35:19.748Z,12.90
2018-09-27T06:36:23.242Z,12.90
2018-09-27T06:37:27.663Z,13.00
2018-09-27T06:38:31.156Z,13.10
2018-09-27T06:39:34.617Z,13.20
2018-09-27T06:40:38.053Z,13.30
2018-09-27T06:41:42.266Z,13.50
2018-09-27T06:42:46.092Z,13.70
2018-09-27T06:43:49.572Z,14.00
2018-09-27T06:44:53.018Z,14.40
2018-09-27T06:45:57.465Z,14.80
2018-09-27T06:47:00.920Z,15.20
2018-09-27T06:48:04.362Z,15.40
2018-09-27T06:49:07.953Z,15.70
2018-09-27T06:50:11.742Z,16.00
2018-09-27T06:51:15.238Z,16.40
2018-09-27T06:52:18.862Z,16.70
2018-09-27T06:53:22.367Z,17.10
2018-09-27T06:54:26.633Z,17.50
2018-09-27T06:55:30.967Z,17.90
2018-09-27T06:56:34.523Z,18.30
2018-09-27T06:57:38.191Z,18.60
2018-09-27T06:58:43.175Z,19.00
2018-09-27T06:59:46.897Z,19.20
2018-09-27T07:00:50.765Z,19.40
2018-09-27T07:01:54.220Z,19.70
2018-09-27T07:02:57.757Z,19.90
2018-09-27T07:04:01.345Z,20.10
2018-09-27T07:05:04.838Z,20.30
2018-09-27T07:06:08.781Z,20.40
2018-09-27T07:07:13.395Z,20.60
2018-09-27T07:08:17.113Z,20.80
2018-09-27T07:09:21.112Z,21.00
2018-09-27T07:10:24.596Z,21.10
2018-09-27T07:11:28.988Z,21.20
2018-09-27T07:12:32.649Z,21.30
2018-09-27T07:13:36.051Z,21.40
2018-09-27T07:14:39.736Z,21.60
2018-09-27T07:15:43.636Z,21.50
2018-09-27T07:16:47.223Z,21.60
2018-09-27T07:17:51.306Z,21.70
2018-09-27T07:18:55.428Z,21.70
2018-09-27T07:20:01.759Z,21.90
2018-09-27T07:21:05.335Z,21.90
2018-09-27T07:22:08.829Z,22.10
2018-09-27T07:23:13.553Z,22.30
2018-09-27T07:24:17.165Z,22.50
2018-09-27T07:25:26.384Z,22.60
2018-09-27T07:26:30.559Z,22.70
2018-09-27T07:27:34.008Z,22.60
2018-09-27T07:28:37.481Z,22.70
2018-09-27T07:29:41.063Z,22.70
2018-09-27T07:30:44.773Z,22.80
2018-09-27T07:31:48.275Z,22.90
2018-09-27T07:32:51.794Z,23.00
2018-09-27T07:33:57.393Z,23.00
2018-09-27T07:35:00.826Z,23.00
2018-09-27T07:36:04.793Z,23.10
2018-09-27T07:37:08.548Z,23.10
2018-09-27T07:38:12.163Z,23.00
2018-09-27T07:39:16.054Z,23.00
2018-09-27T07:40:23.268Z,22.80
2018-09-27T07:41:27.700Z,22.60
2018-09-27T07:42:31.181Z,22.40
2018-09-27T07:43:34.881Z,22.40
2018-09-27T07:44:38.809Z,22.50
2018-09-27T07:45:42.414Z,22.50
2018-09-27T07:46:49.313Z,22.40
2018-09-27T07:47:52.942Z,22.60
2018-09-27T07:48:56.520Z,22.70
2018-09-27T07:49:59.979Z,22.90
2018-09-27T07:51:03.505Z,22.90
2018-09-27T07:52:06.980Z,23.20
2018-09-27T07:53:11.596Z,23.10
2018-09-27T07:54:15.767Z,23.00
2018-09-27T07:55:19.215Z,22.90
2018-09-27T07:56:22.849Z,22.90
2018-09-27T07:57:26.211Z,23.00
2018-09-27T07:58:29.790Z,23.10
2018-09-27T07:59:33.465Z,23.20
2018-09-27T08:00:37.585Z,23.30
2018-09-27T08:01:41.197Z,23.40
2018-09-27T08:02:44.798Z,23.50
2018-09-27T08:03:48.273Z,23.50
2018-09-27T08:04:51.692Z,23.60
2018-09-27T08:05:55.804Z,23.70
2018-09-27T08:06:59.451Z,23.60
2018-09-27T08:08:02.908Z,23.60
2018-09-27T08:09:08.333Z,23.60
2018-09-27T08:10:12.199Z,23.50
2018-09-27T08:11:15.762Z,23.50
2018-09-27T08:12:19.361Z,23.50
2018-09-27T08:13:23.403Z,23.60
2018-09-27T08:14:26.931Z,23.60
2018-09-27T08:15:30.356Z,23.60
2018-09-27T08:16:33.800Z,23.50
2018-09-27T08:17:37.427Z,23.50
2018-09-27T08:18:41.579Z,23.50
2018-09-27T08:19:45.041Z,23.50
2018-09-27T08:20:48.710Z,23.50
2018-09-27T08:21:52.180Z,23.60
2018-09-27T08:22:55.585Z,23.70
2018-09-27T08:23:59.114Z,23.80
2018-09-27T08:25:02.825Z,23.80
2018-09-27T08:26:06.389Z,23.80
2018-09-27T08:27:09.970Z,23.80
2018-09-27T08:28:13.455Z,23.80
2018-09-27T08:29:16.907Z,23.80
2018-09-27T08:30:20.401Z,24.10
2018-09-27T08:31:24.137Z,24.10
2018-09-27T08:32:27.696Z,24.20
2018-09-27T08:33:31.351Z,24.30
2018-09-27T08:34:34.826Z,24.50
2018-09-27T08:35:38.625Z,24.70
2018-09-27T08:36:42.199Z,24.70
2018-09-27T08:37:51.389Z,24.70
2018-09-27T08:38:55.043Z,24.70
2018-09-27T08:40:02.898Z,24.70
2018-09-27T08:41:06.787Z,24.80
2018-09-27T08:42:14.087Z,24.70
2018-09-27T08:43:17.710Z,24.80
2018-09-27T08:44:21.368Z,24.80
2018-09-27T08:45:26.315Z,24.80
2018-09-27T08:46:29.720Z,24.80
2018-09-27T08:47:33.919Z,24.70
2018-09-27T08:48:41.935Z,24.80
2018-09-27T08:49:57.278Z,24.90
2018-09-27T08:51:03.131Z,25.00
2018-09-27T08:52:06.696Z,25.00
2018-09-27T08:53:10.194Z,25.10
2018-09-27T08:54:14.531Z,25.20
2018-09-27T08:55:18.106Z,25.30
2018-09-27T08:56:21.910Z,25.40
2018-09-27T08:57:26.298Z,25.40
2018-09-27T08:58:29.975Z,25.40
2018-09-27T08:59:34.420Z,25.40
2018-09-27T09:00:37.930Z,25.40
2018-09-27T09:01:41.919Z,25.40
2018-09-27T09:02:46.242Z,25.60
2018-09-27T09:03:50.240Z,25.60
2018-09-27T09:04:53.854Z,25.40
2018-09-27T09:05:57.942Z,25.20
2018-09-27T09:07:01.688Z,25.10
2018-09-27T09:08:05.964Z,25.00
2018-09-27T09:09:11.620Z,24.90
2018-09-27T09:10:15.233Z,24.80
2018-09-27T09:11:18.781Z,24.60
2018-09-27T09:12:22.996Z,24.60
2018-09-27T09:13:27.058Z,24.60
2018-09-27T09:14:31.556Z,24.50
2018-09-27T09:15:35.881Z,24.20
2018-09-27T09:16:40.610Z,24.10
2018-09-27T09:17:45.385Z,24.20
2018-09-27T09:18:49.595Z,24.20
2018-09-27T09:19:53.552Z,24.30
2018-09-27T09:20:58.308Z,24.40
2018-09-27T09:22:11.263Z,24.40
2018-09-27T09:23:15.674Z,24.20
2018-09-27T09:24:22.868Z,24.10
2018-09-27T09:25:27.704Z,24.10
2018-09-27T09:26:37.516Z,24.20
2018-09-27T09:27:42.271Z,24.20
2018-09-27T09:28:47.189Z,24.10
2018-09-27T09:29:56.712Z,24.20
2018-09-27T09:31:01.966Z,24.30
2018-09-27T09:32:06.445Z,24.20
2018-09-27T09:33:12.487Z,24.30
2018-09-27T09:34:16.981Z,24.30
2018-09-27T09:35:21.135Z,24.10
2018-09-27T09:36:25.100Z,24.00
2018-09-27T09:37:29.016Z,23.90
2018-09-27T09:38:32.662Z,23.90
2018-09-27T09:39:36.783Z,23.80
2018-09-27T09:40:40.366Z,23.80
2018-09-27T09:41:43.914Z,23.80
2018-09-27T09:42:47.418Z,23.70
2018-09-27T09:43:51.188Z,23.70
2018-09-27T09:44:54.717Z,23.60
2018-09-27T09:45:58.247Z,23.40
2018-09-27T09:47:02.342Z,23.20
2018-09-27T09:48:06.036Z,23.10
2018-09-27T09:49:09.543Z,22.90
2018-09-27T09:50:13.162Z,22.70
2018-09-27T09:51:16.640Z,22.60
2018-09-27T09:52:20.338Z,22.50
2018-09-27T09:53:23.995Z,22.50
2018-09-27T09:54:27.890Z,22.50
2018-09-27T09:55:31.364Z,22.60
2018-09-27T09:56:34.925Z,22.60
2018-09-27T09:57:38.793Z,22.50
2018-09-27T09:58:43.056Z,22.40
2018-09-27T09:59:46.762Z,22.40
2018-09-27T10:00:50.764Z,22.20
2018-09-27T10:01:55.149Z,22.00
2018-09-27T10:02:58.733Z,21.90
2018-09-27T10:04:02.215Z,21.90
2018-09-27T10:05:05.794Z,21.70
2018-09-27T10:06:09.405Z,21.70
2018-09-27T10:07:13.356Z,21.70
2018-09-27T10:08:17.064Z,21.70
2018-09-27T10:09:20.646Z,21.70
2018-09-27T10:10:24.166Z,21.60
2018-09-27T10:11:28.414Z,21.70
2018-09-27T10:12:33.365Z,21.70
2018-09-27T10:13:37.170Z,21.70
2018-09-27T10:14:41.225Z,21.50
2018-09-27T10:15:44.826Z,21.60
2018-09-27T10:16:48.378Z,21.50
2018-09-27T10:17:51.922Z,21.50
2018-09-27T10:18:55.451Z,21.40
2018-09-27T10:19:58.991Z,21.40
2018-09-27T10:21:02.713Z,21.50
2018-09-27T10:22:06.450Z,21.50
2018-09-27T10:23:10.551Z,21.60
2018-09-27T10:24:14.705Z,21.60
2018-09-27T10:25:18.237Z,21.60
2018-09-27T10:26:21.864Z,21.50
2018-09-27T10:27:25.867Z,21.40
2018-09-27T10:28:29.697Z,21.50
2018-09-27T10:29:33.196Z,21.50
2018-09-27T10:30:37.721Z,21.60
2018-09-27T10:31:42.872Z,21.60
2018-09-27T10:32:48.297Z,21.50
2018-09-27T10:33:55.155Z,21.50
2018-09-27T10:34:59.573Z,21.50
2018-09-27T10:36:03.256Z,21.50
2018-09-27T10:37:07.305Z,21.40
2018-09-27T10:38:11.535Z,21.40
2018-09-27T10:39:15.794Z,21.40
2018-09-27T10:40:19.470Z,21.30
2018-09-27T10:41:23.746Z,21.20
2018-09-27T10:42:27.520Z,21.20
2018-09-27T10:43:31.342Z,21.20
2018-09-27T10:44:34.898Z,21.20
2018-09-27T10:45:39.153Z,21.30
2018-09-27T10:46:42.748Z,21.30
2018-09-27T10:47:46.280Z,21.40
2018-09-27T10:48:49.774Z,21.50
2018-09-27T10:49:54.027Z,21.50
2018-09-27T10:50:57.834Z,21.60
2018-09-27T10:52:01.423Z,21.60
2018-09-27T10:53:05.062Z,21.60
2018-09-27T10:54:08.723Z,21.60
2018-09-27T10:55:12.458Z,21.60
2018-09-27T10:56:16.058Z,21.60
2018-09-27T10:57:19.896Z,21.60
2018-09-27T10:58:23.736Z,21.70
2018-09-27T10:59:27.403Z,21.80
2018-09-27T11:00:30.877Z,21.80
2018-09-27T11:01:57.048Z,21.90
2018-09-27T11:03:12.893Z,21.90
2018-09-27T11:04:17.781Z,21.80
2018-09-27T11:05:21.444Z,21.80
2018-09-27T11:06:25.672Z,21.80
2018-09-27T11:07:29.965Z,21.70
2018-09-27T11:08:33.807Z,21.70
2018-09-27T11:09:37.427Z,21.70
2018-09-27T11:10:41.015Z,21.60
2018-09-27T11:11:44.582Z,21.60
2018-09-27T11:12:48.173Z,21.60
2018-09-27T11:13:52.112Z,21.50
2018-09-27T11:14:55.697Z,21.40
2018-09-27T11:15:59.384Z,21.30
2018-09-27T11:17:03.120Z,21.20
2018-09-27T11:18:06.932Z,21.20
2018-09-27T11:19:10.791Z,21.30
2018-09-27T11:20:14.652Z,21.20
2018-09-27T11:21:18.330Z,21.20
2018-09-27T11:22:21.911Z,21.10
2018-09-27T11:23:25.519Z,21.00
2018-09-27T11:24:29.217Z,21.00
2018-09-27T11:25:32.784Z,21.00
2018-09-27T11:26:36.465Z,20.90
2018-09-27T11:27:40.141Z,20.90
2018-09-27T11:28:49.067Z,20.80
2018-09-27T11:29:57.932Z,20.90
2018-09-27T11:31:06.696Z,21.00
2018-09-27T11:32:15.774Z,21.10
2018-09-27T11:33:19.332Z,21.20
2018-09-27T11:34:23.097Z,21.20
2018-09-27T11:35:26.774Z,21.30
2018-09-27T11:36:30.419Z,21.40
2018-09-27T11:37:34.101Z,21.50
2018-09-27T11:38:37.653Z,21.60
2018-09-27T11:39:41.553Z,21.60
2018-09-27T11:40:45.123Z,21.60
2018-09-27T11:41:48.710Z,21.70
2018-09-27T11:42:52.482Z,21.70
2018-09-27T11:43:56.000Z,21.70
2018-09-27T11:44:59.612Z,21.60
2018-09-27T11:46:03.142Z,21.60
2018-09-27T11:47:06.779Z,21.60
2018-09-27T11:48:10.486Z,21.60
2018-09-27T11:49:14.433Z,21.70
2018-09-27T11:50:18.129Z,21.70
2018-09-27T11:51:21.734Z,21.70
2018-09-27T11:52:25.514Z,21.70
2018-09-27T11:53:29.170Z,21.70
2018-09-27T11:54:32.766Z,21.70
2018-09-27T11:55:36.672Z,21.70
2018-09-27T11:56:40.432Z,21.70
2018-09-27T11:57:44.474Z,21.60
2018-09-27T11:58:48.138Z,21.60
2018-09-27T11:59:51.805Z,21.60
2018-09-27T12:00:55.672Z,21.60
2018-09-27T12:01:59.371Z,21.60
2018-09-27T12:03:03.178Z,21.70
2018-09-27T12:04:06.994Z,21.70
2018-09-27T12:05:10.972Z,21.80
2018-09-27T12:06:14.926Z,21.80
2018-09-27T12:07:18.713Z,21.70
2018-09-27T12:08:22.451Z,21.60
2018-09-27T12:09:26.196Z,21.60
2018-09-27T12:10:29.973Z,21.50
2018-09-27T12:11:34.016Z,21.50
2018-09-27T12:12:37.741Z,21.40
2018-09-27T12:13:44.793Z,21.40
2018-09-27T12:14:48.643Z,21.30
2018-09-27T12:15:52.447Z,21.20
2018-09-27T12:16:56.235Z,21.20
2018-09-27T12:18:00.103Z,21.20
2018-09-27T12:19:03.883Z,21.30
2018-09-27T12:20:07.661Z,21.30
2018-09-27T12:21:11.840Z,21.40
2018-09-27T12:22:15.726Z,21.50
2018-09-27T12:23:20.125Z,21.60
2018-09-27T12:24:23.691Z,21.70
2018-09-27T12:25:27.399Z,21.80
2018-09-27T12:26:30.964Z,21.90
2018-09-27T12:27:34.643Z,22.00
2018-09-27T12:28:38.622Z,22.00
2018-09-27T12:29:42.412Z,22.00
2018-09-27T12:30:46.248Z,22.00
2018-09-27T12:31:49.934Z,22.10
2018-09-27T12:32:53.629Z,22.10
2018-09-27T12:33:57.342Z,22.20
2018-09-27T12:35:01.214Z,22.20
2018-09-27T12:36:05.062Z,22.20
2018-09-27T12:37:08.766Z,22.30
2018-09-27T12:38:12.586Z,22.30
2018-09-27T12:39:16.326Z,22.30
2018-09-27T12:40:19.873Z,22.30
2018-09-27T12:41:23.475Z,22.30
2018-09-27T12:42:27.143Z,22.30
2018-09-27T12:43:30.828Z,22.40
2018-09-27T12:44:34.374Z,22.40
2018-09-27T12:45:38.250Z,22.40
2018-09-27T12:46:41.756Z,22.40
2018-09-27T12:47:45.553Z,22.40
2018-09-27T12:48:49.423Z,22.40
2018-09-27T12:49:53.057Z,22.30
2018-09-27T12:50:56.774Z,22.40
2018-09-27T12:52:00.601Z,22.30
2018-09-27T12:53:04.302Z,22.30
2018-09-27T12:54:07.975Z,22.20
2018-09-27T12:55:11.770Z,22.30
2018-09-27T12:56:15.430Z,22.30
2018-09-27T12:57:19.066Z,22.30
2018-09-27T12:58:22.743Z,22.40
2018-09-27T12:59:26.380Z,22.40
2018-09-27T13:00:29.984Z,22.40
2018-09-27T13:01:33.588Z,22.40
2018-09-27T13:02:37.395Z,22.40
2018-09-27T13:03:41.054Z,22.40
2018-09-27T13:04:44.687Z,22.30
2018-09-27T13:05:48.596Z,22.30
2018-09-27T13:06:52.478Z,22.30
2018-09-27T13:07:56.127Z,22.20
2018-09-27T13:08:59.854Z,22.20
2018-09-27T13:10:03.563Z,22.20
2018-09-27T13:11:07.131Z,22.10
2018-09-27T13:12:11.124Z,22.10
2018-09-27T13:13:14.805Z,22.10
2018-09-27T13:14:18.441Z,22.10
2018-09-27T13:15:22.246Z,22.10
2018-09-27T13:16:26.016Z,22.10
2018-09-27T13:17:29.753Z,22.10
2018-09-27T13:18:34.013Z,22.10
2018-09-27T13:19:37.902Z,22.10
2018-09-27T13:20:41.442Z,22.10
2018-09-27T13:21:45.130Z,22.20
2018-09-27T13:22:48.910Z,22.20
2018-09-27T13:23:52.737Z,22.20
2018-09-27T13:24:56.491Z,22.20
2018-09-27T13:26:00.082Z,22.20
2018-09-27T13:27:03.746Z,22.20
2018-09-27T13:28:07.380Z,22.20
2018-09-27T13:29:11.179Z,22.30
2018-09-27T13:30:15.138Z,22.30
2018-09-27T13:31:18.981Z,22.30
2018-09-27T13:32:22.784Z,22.30
2018-09-27T13:33:27.143Z,22.30
2018-09-27T13:34:30.967Z,22.30
2018-09-27T13:35:34.537Z,22.30
2018-09-27T13:36:38.226Z,22.40
2018-09-27T13:37:41.836Z,22.30
2018-09-27T13:38:45.494Z,22.40
2018-09-27T13:39:49.315Z,22.40
2018-09-27T13:40:53.019Z,22.30
2018-09-27T13:41:56.689Z,22.30
2018-09-27T13:43:00.296Z,22.30